createdAt,value
2019-01-04T21:33:23.200Z,98372.47
2019-01-04T21:36:12.998Z,98380.67
2019-01-04T21:39:16.438Z,98376.08
2019-01-04T21:41:51.549Z,98376.64
2019-01-04T21:44:31.707Z,98373.30
2019-01-04T21:47:21.151Z,98371.63
2019-01-04T21:50:10.939Z,98363.00
2019-01-04T21:53:02.274Z,98348.75
2019-01-04T21:56:01.439Z,98349.48
2019-01-04T21:58:47.531Z,98342.34
2019-01-04T22:01:25.286Z,98342.34
2019-01-04T22:04:01.999Z,98339.29
2019-01-04T22:06:55.492Z,98332.41
2019-01-04T22:09:44.149Z,98336.84
2019-01-04T22:12:33.531Z,98336.84
2019-01-04T22:15:15.200Z,98336.89
2019-01-04T22:17:52.220Z,98339.87
2019-01-04T22:20:23.891Z,98333.41
2019-01-04T22:23:10.832Z,98335.05
2019-01-04T22:25:59.489Z,98329.48
2019-01-04T22:28:58.848Z,98329.48
2019-01-04T22:31:39.140Z,98322.63
2019-01-04T22:34:28.478Z,98331.73
2019-01-04T22:37:04.138Z,98329.62
2019-01-04T22:39:37.248Z,98323.14
2019-01-04T22:42:26.561Z,98324.88
2019-01-04T22:45:32.700Z,98318.87
2019-01-04T22:48:25.957Z,98325.34
2019-01-04T22:51:18.137Z,98324.50
2019-01-04T22:54:12.813Z,98321.80
2019-01-04T22:56:53.808Z,98318.94
2019-01-04T22:59:45.925Z,98319.95
2019-01-04T23:02:36.301Z,98315.96
2019-01-04T23:05:28.280Z,98309.50
2019-01-04T23:08:06.761Z,98318.85
2019-01-04T23:10:54.642Z,98311.20
2019-01-04T23:13:36.668Z,98313.25
2019-01-04T23:16:08.202Z,98306.86
2019-01-04T23:18:39.643Z,98311.27
2019-01-04T23:22:03.929Z,98299.07
2019-01-04T23:24:51.629Z,98297.69
2019-01-04T23:27:28.975Z,98303.21
2019-01-04T23:30:12.636Z,98295.26
2019-01-04T23:33:00.913Z,98288.34
2019-01-04T23:35:48.833Z,98288.83
2019-01-04T23:38:29.004Z,98284.09
2019-01-04T23:41:09.225Z,98281.14
2019-01-04T23:43:40.788Z,98285.45
2019-01-04T23:46:15.112Z,98280.31
2019-01-04T23:48:56.807Z,98258.48
2019-01-04T23:51:29.989Z,98261.98
2019-01-04T23:54:03.442Z,98252.47
2019-01-04T23:56:48.350Z,98251.31
2019-01-04T23:59:28.320Z,98252.50
